PAYA

Yakutat Airport

Yakutat, Alaska, USA
PAYA 260522Z 2606/2706 VRB03KT P6SM BCFG SCT003 FM261200 07004KT P6SM SCT250 FM261800 24007KT P6SM SCT120 AMD LTD TO CLD VIS AND WIND
Issued Valid From Valid To
Apr-26 @ 05:22 UTC
(37 minutes ago)
Apr-26 @ 06:00 UTC
(in a few seconds)
Apr-27 @ 06:00 UTC
(in 24 hours)
Apr-26 @ 06:00 to Apr-26 @ 12:00
PAYA 260522Z 2606/2706 VRB03KT P6SM BCFG SCT003
Wind Visibility Clouds Conditions
Variable at 3 knots Greater than 6 miles
  • Scattered at 300' AGL
  • Patches of
  • Fog
From Apr-26 @ 12:00 to Apr-26 @ 18:00
FM261200 07004KT P6SM SCT250
Wind Visibility Clouds
70° at 4 knots Greater than 6 miles
  • Scattered at 25,000' AGL
From Apr-26 @ 18:00 to Apr-27 @ 06:00
FM261800 24007KT P6SM SCT120 AMD LTD TO CLD VIS AND WIND
Wind Visibility Clouds
240° at 7 knots Greater than 6 miles
  • Scattered at 12,000' AGL
PAYA 260522Z 2606/2706 VRB03KT P6SM BCFG SCT003 FM261200 07004KT P6SM SCT250 FM261800 24007KT P6SM SCT120 AMD LTD TO CLD VIS AND WIND
Issued Apr-26 @ 05:22 UTC
(37 minutes ago)
Valid From Apr-26 @ 06:00 UTC
(in a few seconds)
Valid To Apr-27 @ 06:00 UTC
(in 24 hours)
Apr-26 @ 06:00 - Apr-26 @ 12:00
Wind Visibility
Variable at 3 knots Greater than 6 miles
Clouds
  • Scattered at 300' AGL
Conditions
  • Patches of
  • Fog
From Apr-26 @ 12:00 - Apr-26 @ 18:00
Wind Visibility
70° at 4 knots Greater than 6 miles
Clouds
  • Scattered at 25,000' AGL
From Apr-26 @ 18:00 - Apr-27 @ 06:00
Wind Visibility
240° at 7 knots Greater than 6 miles
Clouds
  • Scattered at 12,000' AGL